sensor_id;sensor_type;location;lat;lon;timestamp;pressure;altitude;pressure_sealevel;temperature;humidity
66560;BME280;53413;49.878;8.142;2023-02-04T00:00:07;101305.09;;;7.99;100.00
66560;BME280;53413;49.878;8.142;2023-02-04T00:02:33;101309.41;;;8.01;100.00
66560;BME280;53413;49.878;8.142;2023-02-04T00:04:59;101319.00;;;8.01;100.00
66560;BME280;53413;49.878;8.142;2023-02-04T00:07:25;101319.84;;;8.01;100.00
66560;BME280;53413;49.878;8.142;2023-02-04T00:09:50;101323.34;;;8.02;100.00
66560;BME280;53413;49.878;8.142;2023-02-04T00:12:15;101331.16;;;8.04;100.00
66560;BME280;53413;49.878;8.142;2023-02-04T00:14:41;101335.53;;;8.01;100.00
66560;BME280;53413;49.878;8.142;2023-02-04T00:17:07;101336.41;;;8.02;100.00
66560;BME280;53413;49.878;8.142;2023-02-04T00:19:34;101335.53;;;8.01;100.00
66560;BME280;53413;49.878;8.142;2023-02-04T00:22:00;101331.19;;;8.02;100.00
66560;BME280;53413;49.878;8.142;2023-02-04T00:24:25;101332.94;;;8.00;100.00
66560;BME280;53413;49.878;8.142;2023-02-04T00:26:50;101337.31;;;7.99;100.00
66560;BME280;53413;49.878;8.142;2023-02-04T00:29:16;101335.53;;;8.00;100.00
66560;BME280;53413;49.878;8.142;2023-02-04T00:31:41;101343.38;;;8.00;100.00
66560;BME280;53413;49.878;8.142;2023-02-04T00:34:06;101356.41;;;8.01;100.00
66560;BME280;53413;49.878;8.142;2023-02-04T00:36:32;101355.56;;;8.01;100.00
66560;BME280;53413;49.878;8.142;2023-02-04T00:38:57;101360.78;;;8.01;100.00
66560;BME280;53413;49.878;8.142;2023-02-04T00:41:22;101350.34;;;7.99;100.00
66560;BME280;53413;49.878;8.142;2023-02-04T00:43:48;101357.31;;;7.99;100.00
66560;BME280;53413;49.878;8.142;2023-02-04T00:46:13;101351.22;;;7.98;100.00
66560;BME280;53413;49.878;8.142;2023-02-04T00:48:38;101358.16;;;7.98;100.00
66560;BME280;53413;49.878;8.142;2023-02-04T00:51:04;101345.13;;;7.98;100.00
66560;BME280;53413;49.878;8.142;2023-02-04T00:53:29;101350.34;;;7.96;100.00
66560;BME280;53413;49.878;8.142;2023-02-04T00:55:55;101357.31;;;7.96;100.00
66560;BME280;53413;49.878;8.142;2023-02-04T00:58:21;101363.41;;;7.96;100.00
66560;BME280;53413;49.878;8.142;2023-02-04T01:00:46;101366.91;;;7.95;100.00
66560;BME280;53413;49.878;8.142;2023-02-04T01:03:12;101362.53;;;7.94;100.00
66560;BME280;53413;49.878;8.142;2023-02-04T01:05:37;101371.25;;;7.93;100.00
66560;BME280;53413;49.878;8.142;2023-02-04T01:08:02;101379.94;;;7.95;100.00
66560;BME280;53413;49.878;8.142;2023-02-04T01:10:28;101385.16;;;7.95;100.00
66560;BME280;53413;49.878;8.142;2023-02-04T01:12:53;101382.56;;;7.95;100.00
66560;BME280;53413;49.878;8.142;2023-02-04T01:15:18;101381.66;;;7.95;100.00
66560;BME280;53413;49.878;8.142;2023-02-04T01:17:45;101379.09;;;7.93;100.00
66560;BME280;53413;49.878;8.142;2023-02-04T01:20:10;101384.31;;;7.93;100.00
66560;BME280;53413;49.878;8.142;2023-02-04T01:22:36;101392.13;;;7.93;100.00
66560;BME280;53413;49.878;8.142;2023-02-04T01:25:01;101394.75;;;7.93;100.00
66560;BME280;53413;49.878;8.142;2023-02-04T01:27:27;101398.22;;;7.92;100.00
66560;BME280;53413;49.878;8.142;2023-02-04T01:29:52;101386.91;;;7.90;100.00
66560;BME280;53413;49.878;8.142;2023-02-04T01:32:17;101381.69;;;7.90;100.00
66560;BME280;53413;49.878;8.142;2023-02-04T01:34:43;101384.31;;;7.92;100.00
66560;BME280;53413;49.878;8.142;2023-02-04T01:37:08;101387.78;;;7.89;100.00
66560;BME280;53413;49.878;8.142;2023-02-04T01:39:33;101390.41;;;7.88;100.00
66560;BME280;53413;49.878;8.142;2023-02-04T01:41:59;101400.84;;;7.88;100.00
66560;BME280;53413;49.878;8.142;2023-02-04T01:44:26;101406.94;;;7.86;100.00
66560;BME280;53413;49.878;8.142;2023-02-04T01:46:52;101411.31;;;7.88;100.00
66560;BME280;53413;49.878;8.142;2023-02-04T01:49:17;101417.41;;;7.85;100.00
66560;BME280;53413;49.878;8.142;2023-02-04T01:51:42;101420.00;;;7.86;100.00
66560;BME280;53413;49.878;8.142;2023-02-04T01:54:10;101416.53;;;7.88;100.00
66560;BME280;53413;49.878;8.142;2023-02-04T01:56:36;101418.25;;;7.89;100.00
66560;BME280;53413;49.878;8.142;2023-02-04T01:59:08;101418.25;;;7.90;100.00
66560;BME280;53413;49.878;8.142;2023-02-04T02:01:43;101419.09;;;7.89;100.00
66560;BME280;53413;49.878;8.142;2023-02-04T02:04:13;101414.81;;;7.85;100.00
66560;BME280;53413;49.878;8.142;2023-02-04T02:06:41;101418.28;;;7.84;100.00
66560;BME280;53413;49.878;8.142;2023-02-04T02:09:08;101416.56;;;7.81;100.00
66560;BME280;53413;49.878;8.142;2023-02-04T02:11:33;101413.09;;;7.79;100.00
66560;BME280;53413;49.878;8.142;2023-02-04T02:13:59;101419.19;;;7.74;100.00
66560;BME280;53413;49.878;8.142;2023-02-04T02:16:25;101415.72;;;7.72;100.00
66560;BME280;53413;49.878;8.142;2023-02-04T02:18:50;101420.06;;;7.69;100.00
66560;BME280;53413;49.878;8.142;2023-02-04T02:21:26;101414.88;;;7.68;100.00
66560;BME280;53413;49.878;8.142;2023-02-04T02:23:55;101420.97;;;7.64;100.00
66560;BME280;53413;49.878;8.142;2023-02-04T02:26:22;101419.22;;;7.60;100.00
66560;BME280;53413;49.878;8.142;2023-02-04T02:28:49;101420.09;;;7.57;100.00
66560;BME280;53413;49.878;8.142;2023-02-04T02:31:16;101425.31;;;7.54;100.00
66560;BME280;53413;49.878;8.142;2023-02-04T02:33:42;101422.75;;;7.51;100.00
66560;BME280;53413;49.878;8.142;2023-02-04T02:36:09;101426.25;;;7.45;100.00
66560;BME280;53413;49.878;8.142;2023-02-04T02:38:35;101431.47;;;7.42;100.00
66560;BME280;53413;49.878;8.142;2023-02-04T02:41:01;101421.91;;;7.38;100.00
66560;BME280;53413;49.878;8.142;2023-02-04T02:43:27;101423.66;;;7.34;100.00
66560;BME280;53413;49.878;8.142;2023-02-04T02:45:55;101432.34;;;7.30;100.00
66560;BME280;53413;49.878;8.142;2023-02-04T02:48:22;101436.72;;;7.25;100.00
66560;BME280;53413;49.878;8.142;2023-02-04T02:50:47;101432.34;;;7.22;100.00
66560;BME280;53413;49.878;8.142;2023-02-04T02:53:15;101432.38;;;7.19;100.00
66560;BME280;53413;49.878;8.142;2023-02-04T02:55:42;101440.19;;;7.16;100.00
66560;BME280;53413;49.878;8.142;2023-02-04T02:58:32;101452.34;;;7.16;100.00
66560;BME280;53413;49.878;8.142;2023-02-04T03:01:04;101455.84;;;7.15;100.00
66560;BME280;53413;49.878;8.142;2023-02-04T03:03:32;101456.72;;;7.14;100.00
66560;BME280;53413;49.878;8.142;2023-02-04T03:06:02;101460.16;;;7.11;100.00
66560;BME280;53413;49.878;8.142;2023-02-04T03:08:29;101461.06;;;7.12;100.00
66560;BME280;53413;49.878;8.142;2023-02-04T03:10:54;101470.59;;;7.11;100.00
66560;BME280;53413;49.878;8.142;2023-02-04T03:13:20;101464.53;;;7.11;100.00
66560;BME280;53413;49.878;8.142;2023-02-04T03:15:46;101472.34;;;7.09;100.00
66560;BME280;53413;49.878;8.142;2023-02-04T03:18:15;101469.75;;;7.09;100.00
66560;BME280;53413;49.878;8.142;2023-02-04T03:20:41;101474.94;;;7.07;100.00
66560;BME280;53413;49.878;8.142;2023-02-04T03:23:07;101490.59;;;7.06;100.00
66560;BME280;53413;49.878;8.142;2023-02-04T03:25:32;101493.19;;;7.04;100.00
66560;BME280;53413;49.878;8.142;2023-02-04T03:27:58;101494.94;;;7.02;100.00
66560;BME280;53413;49.878;8.142;2023-02-04T03:30:24;101499.28;;;7.00;100.00
66560;BME280;53413;49.878;8.142;2023-02-04T03:32:50;101502.72;;;6.98;100.00
66560;BME280;53413;49.878;8.142;2023-02-04T03:35:16;101505.34;;;6.96;100.00
66560;BME280;53413;49.878;8.142;2023-02-04T03:37:41;101506.22;;;6.95;100.00
66560;BME280;53413;49.878;8.142;2023-02-04T03:40:08;101505.34;;;6.93;100.00
66560;BME280;53413;49.878;8.142;2023-02-04T03:42:34;101504.50;;;6.91;100.00
66560;BME280;53413;49.878;8.142;2023-02-04T03:44:59;101511.44;;;6.89;100.00
66560;BME280;53413;49.878;8.142;2023-02-04T03:47:24;101510.56;;;6.88;100.00
66560;BME280;53413;49.878;8.142;2023-02-04T03:49:50;101509.69;;;6.85;100.00
66560;BME280;53413;49.878;8.142;2023-02-04T03:52:15;101523.59;;;6.85;100.00
66560;BME280;53413;49.878;8.142;2023-02-04T03:54:40;101520.09;;;6.85;100.00
66560;BME280;53413;49.878;8.142;2023-02-04T03:57:06;101520.09;;;6.85;100.00
66560;BME280;53413;49.878;8.142;2023-02-04T03:59:31;101520.09;;;6.85;100.00
66560;BME280;53413;49.878;8.142;2023-02-04T04:01:57;101518.38;;;6.84;100.00
66560;BME280;53413;49.878;8.142;2023-02-04T04:04:22;101527.03;;;6.83;100.00
66560;BME280;53413;49.878;8.142;2023-02-04T04:06:47;101526.16;;;6.81;100.00
66560;BME280;53413;49.878;8.142;2023-02-04T04:09:13;101526.16;;;6.81;100.00
66560;BME280;53413;49.878;8.142;2023-02-04T04:11:38;101531.38;;;6.79;100.00
66560;BME280;53413;49.878;8.142;2023-02-04T04:14:03;101521.81;;;6.78;100.00
66560;BME280;53413;49.878;8.142;2023-02-04T04:16:29;101529.63;;;6.75;100.00
66560;BME280;53413;49.878;8.142;2023-02-04T04:18:54;101528.78;;;6.74;100.00
66560;BME280;53413;49.878;8.142;2023-02-04T04:21:20;101527.91;;;6.72;100.00
66560;BME280;53413;49.878;8.142;2023-02-04T04:23:46;101527.88;;;6.69;100.00
66560;BME280;53413;49.878;8.142;2023-02-04T04:26:11;101538.31;;;6.68;100.00
66560;BME280;53413;49.878;8.142;2023-02-04T04:28:36;101533.97;;;6.65;100.00
66560;BME280;53413;49.878;8.142;2023-02-04T04:31:01;101540.03;;;6.66;100.00
66560;BME280;53413;49.878;8.142;2023-02-04T04:33:27;101547.00;;;6.65;100.00
66560;BME280;53413;49.878;8.142;2023-02-04T04:35:52;101544.41;;;6.65;100.00
66560;BME280;53413;49.878;8.142;2023-02-04T04:38:18;101557.41;;;6.67;100.00
66560;BME280;53413;49.878;8.142;2023-02-04T04:40:43;101544.41;;;6.65;100.00
66560;BME280;53413;49.878;8.142;2023-02-04T04:43:08;101549.59;;;6.65;100.00
66560;BME280;53413;49.878;8.142;2023-02-04T04:45:34;101531.34;;;6.63;100.00
66560;BME280;53413;49.878;8.142;2023-02-04T04:47:59;101530.50;;;6.63;100.00
66560;BME280;53413;49.878;8.142;2023-02-04T04:50:24;101528.75;;;6.62;100.00
66560;BME280;53413;49.878;8.142;2023-02-04T04:52:50;101533.97;;;6.60;100.00
66560;BME280;53413;49.878;8.142;2023-02-04T04:55:15;101531.34;;;6.59;100.00
66560;BME280;53413;49.878;8.142;2023-02-04T04:57:41;101530.47;;;6.58;100.00
66560;BME280;53413;49.878;8.142;2023-02-04T05:00:07;101535.66;;;6.57;100.00
66560;BME280;53413;49.878;8.142;2023-02-04T05:02:33;101532.22;;;6.56;100.00
66560;BME280;53413;49.878;8.142;2023-02-04T05:04:58;101532.22;;;6.55;100.00
66560;BME280;53413;49.878;8.142;2023-02-04T05:07:24;101533.94;;;6.53;100.00
66560;BME280;53413;49.878;8.142;2023-02-04T05:09:49;101540.88;;;6.51;100.00
66560;BME280;53413;49.878;8.142;2023-02-04T05:12:14;101549.53;;;6.50;100.00
66560;BME280;53413;49.878;8.142;2023-02-04T05:14:40;101547.81;;;6.49;100.00
66560;BME280;53413;49.878;8.142;2023-02-04T05:17:05;101553.88;;;6.46;100.00
66560;BME280;53413;49.878;8.142;2023-02-04T05:19:31;101551.25;;;6.44;100.00
66560;BME280;53413;49.878;8.142;2023-02-04T05:21:56;101560.81;;;6.44;100.00
66560;BME280;53413;49.878;8.142;2023-02-04T05:24:22;101568.63;;;6.45;100.00
66560;BME280;53413;49.878;8.142;2023-02-04T05:26:47;101561.69;;;6.46;100.00
66560;BME280;53413;49.878;8.142;2023-02-04T05:29:12;101560.81;;;6.47;100.00
66560;BME280;53413;49.878;8.142;2023-02-04T05:31:38;101566.00;;;6.45;100.00
66560;BME280;53413;49.878;8.142;2023-02-04T05:34:03;101570.38;;;6.45;100.00
66560;BME280;53413;49.878;8.142;2023-02-04T05:36:28;101572.09;;;6.41;100.00
66560;BME280;53413;49.878;8.142;2023-02-04T05:38:54;101575.56;;;6.40;100.00
66560;BME280;53413;49.878;8.142;2023-02-04T05:41:20;101579.88;;;6.40;100.00
66560;BME280;53413;49.878;8.142;2023-02-04T05:43:46;101585.97;;;6.40;100.00
66560;BME280;53413;49.878;8.142;2023-02-04T05:46:11;101585.09;;;6.38;100.00
66560;BME280;53413;49.878;8.142;2023-02-04T05:48:36;101592.03;;;6.39;100.00
66560;BME280;53413;49.878;8.142;2023-02-04T05:51:04;101608.53;;;6.38;100.00
66560;BME280;53413;49.878;8.142;2023-02-04T05:53:29;101611.97;;;6.34;100.00
66560;BME280;53413;49.878;8.142;2023-02-04T05:55:54;101624.97;;;6.34;100.00
66560;BME280;53413;49.878;8.142;2023-02-04T05:58:20;101618.03;;;6.31;100.00
66560;BME280;53413;49.878;8.142;2023-02-04T06:00:45;101611.09;;;6.30;100.00
66560;BME280;53413;49.878;8.142;2023-02-04T06:03:11;101624.97;;;6.29;100.00
66560;BME280;53413;49.878;8.142;2023-02-04T06:05:38;101620.63;;;6.30;100.00
66560;BME280;53413;49.878;8.142;2023-02-04T06:08:03;101617.16;;;6.29;100.00
66560;BME280;53413;49.878;8.142;2023-02-04T06:10:29;101617.16;;;6.28;100.00
66560;BME280;53413;49.878;8.142;2023-02-04T06:12:54;101628.44;;;6.27;100.00
66560;BME280;53413;49.878;8.142;2023-02-04T06:15:19;101627.53;;;6.26;100.00
66560;BME280;53413;49.878;8.142;2023-02-04T06:17:45;101624.94;;;6.26;100.00
66560;BME280;53413;49.878;8.142;2023-02-04T06:20:13;101623.19;;;6.24;100.00
66560;BME280;53413;49.878;8.142;2023-02-04T06:22:39;101635.34;;;6.23;100.00
66560;BME280;53413;49.878;8.142;2023-02-04T06:25:04;101638.84;;;6.25;100.00
66560;BME280;53413;49.878;8.142;2023-02-04T06:27:30;101642.31;;;6.24;100.00
66560;BME280;53413;49.878;8.142;2023-02-04T06:29:55;101643.16;;;6.23;100.00
66560;BME280;53413;49.878;8.142;2023-02-04T06:32:21;101648.34;;;6.22;100.00
66560;BME280;53413;49.878;8.142;2023-02-04T06:34:47;101646.63;;;6.24;100.00
66560;BME280;53413;49.878;8.142;2023-02-04T06:37:13;101652.69;;;6.23;100.00
66560;BME280;53413;49.878;8.142;2023-02-04T06:39:39;101649.19;;;6.21;100.00
66560;BME280;53413;49.878;8.142;2023-02-04T06:42:05;101661.34;;;6.20;100.00
66560;BME280;53413;49.878;8.142;2023-02-04T06:44:30;101663.97;;;6.20;100.00
66560;BME280;53413;49.878;8.142;2023-02-04T06:46:55;101665.72;;;6.23;100.00
66560;BME280;53413;49.878;8.142;2023-02-04T06:49:21;101658.75;;;6.22;100.00
66560;BME280;53413;49.878;8.142;2023-02-04T06:51:46;101665.72;;;6.21;100.00
66560;BME280;53413;49.878;8.142;2023-02-04T06:54:12;101679.56;;;6.22;100.00
66560;BME280;53413;49.878;8.142;2023-02-04T06:56:39;101686.56;;;6.26;100.00
66560;BME280;53413;49.878;8.142;2023-02-04T06:59:04;101675.31;;;6.30;100.00
66560;BME280;53413;49.878;8.142;2023-02-04T07:01:30;101682.25;;;6.34;100.00
66560;BME280;53413;49.878;8.142;2023-02-04T07:03:55;101687.50;;;6.37;100.00
66560;BME280;53413;49.878;8.142;2023-02-04T07:06:20;101680.59;;;6.42;100.00
66560;BME280;53413;49.878;8.142;2023-02-04T07:08:46;101691.00;;;6.45;100.00
66560;BME280;53413;49.878;8.142;2023-02-04T07:11:11;101698.84;;;6.49;100.00
66560;BME280;53413;49.878;8.142;2023-02-04T07:13:37;101699.72;;;6.49;100.00
66560;BME280;53413;49.878;8.142;2023-02-04T07:16:02;101704.94;;;6.49;100.00
66560;BME280;53413;49.878;8.142;2023-02-04T07:18:27;101717.94;;;6.47;100.00
66560;BME280;53413;49.878;8.142;2023-02-04T07:20:53;101720.56;;;6.51;100.00
66560;BME280;53413;49.878;8.142;2023-02-04T07:23:18;101708.44;;;6.54;100.00
66560;BME280;53413;49.878;8.142;2023-02-04T07:25:43;101711.03;;;6.56;100.00
66560;BME280;53413;49.878;8.142;2023-02-04T07:28:09;101721.44;;;6.56;100.00
66560;BME280;53413;49.878;8.142;2023-02-04T07:30:34;101717.13;;;6.58;100.00
66560;BME280;53413;49.878;8.142;2023-02-04T07:32:59;101718.91;;;6.60;100.00
66560;BME280;53413;49.878;8.142;2023-02-04T07:35:25;101724.09;;;6.60;100.00
66560;BME280;53413;49.878;8.142;2023-02-04T07:37:50;101724.09;;;6.63;100.00
66560;BME280;53413;49.878;8.142;2023-02-04T07:40:16;101723.25;;;6.65;100.00
66560;BME280;53413;49.878;8.142;2023-02-04T07:42:41;101725.88;;;6.68;100.00
66560;BME280;53413;49.878;8.142;2023-02-04T07:45:07;101722.41;;;6.69;100.00
66560;BME280;53413;49.878;8.142;2023-02-04T07:47:33;101737.19;;;6.71;100.00
66560;BME280;53413;49.878;8.142;2023-02-04T07:49:58;101728.50;;;6.72;100.00
66560;BME280;53413;49.878;8.142;2023-02-04T07:52:24;101740.66;;;6.73;100.00
66560;BME280;53413;49.878;8.142;2023-02-04T07:54:50;101738.97;;;6.78;100.00
66560;BME280;53413;49.878;8.142;2023-02-04T07:57:17;101743.31;;;6.81;100.00
66560;BME280;53413;49.878;8.142;2023-02-04T07:59:42;101754.63;;;6.83;100.00
66560;BME280;53413;49.878;8.142;2023-02-04T08:02:08;101751.16;;;6.86;100.00
66560;BME280;53413;49.878;8.142;2023-02-04T08:04:34;101752.94;;;6.90;100.00
66560;BME280;53413;49.878;8.142;2023-02-04T08:06:59;101761.66;;;6.97;100.00
66560;BME280;53413;49.878;8.142;2023-02-04T08:09:25;101750.38;;;7.04;100.00
66560;BME280;53413;49.878;8.142;2023-02-04T08:11:51;101760.84;;;7.16;100.00
66560;BME280;53413;49.878;8.142;2023-02-04T08:14:16;101754.81;;;7.25;100.00
66560;BME280;53413;49.878;8.142;2023-02-04T08:16:42;101750.50;;;7.38;100.00
66560;BME280;53413;49.878;8.142;2023-02-04T08:19:09;101756.63;;;7.51;100.00
66560;BME280;53413;49.878;8.142;2023-02-04T08:21:35;101769.72;;;7.73;100.00
66560;BME280;53413;49.878;8.142;2023-02-04T08:24:00;101773.22;;;7.90;100.00
66560;BME280;53413;49.878;8.142;2023-02-04T08:26:26;101772.38;;;8.05;100.00
66560;BME280;53413;49.878;8.142;2023-02-04T08:28:51;101759.31;;;8.14;100.00
66560;BME280;53413;49.878;8.142;2023-02-04T08:31:16;101769.75;;;8.24;100.00
66560;BME280;53413;49.878;8.142;2023-02-04T08:33:41;101769.75;;;8.31;100.00
66560;BME280;53413;49.878;8.142;2023-02-04T08:36:07;101772.38;;;8.39;100.00
66560;BME280;53413;49.878;8.142;2023-02-04T08:38:33;101772.41;;;8.49;100.00
66560;BME280;53413;49.878;8.142;2023-02-04T08:40:58;101769.75;;;8.55;100.00
66560;BME280;53413;49.878;8.142;2023-02-04T08:43:24;101771.50;;;8.59;100.00
66560;BME280;53413;49.878;8.142;2023-02-04T08:45:50;101769.75;;;8.61;100.00
66560;BME280;53413;49.878;8.142;2023-02-04T08:48:15;101769.75;;;8.64;100.00
66560;BME280;53413;49.878;8.142;2023-02-04T08:50:41;101777.59;;;8.72;100.00
66560;BME280;53413;49.878;8.142;2023-02-04T08:53:06;101781.06;;;8.77;100.00
66560;BME280;53413;49.878;8.142;2023-02-04T08:55:32;101779.31;;;8.82;100.00
66560;BME280;53413;49.878;8.142;2023-02-04T08:57:57;101781.00;;;8.91;100.00
66560;BME280;53413;49.878;8.142;2023-02-04T09:00:23;101789.72;;;9.01;100.00
66560;BME280;53413;49.878;8.142;2023-02-04T09:02:49;101782.69;;;9.09;100.00
66560;BME280;53413;49.878;8.142;2023-02-04T09:05:14;101789.66;;;9.13;100.00
66560;BME280;53413;49.878;8.142;2023-02-04T09:07:39;101792.25;;;9.21;100.00
66560;BME280;53413;49.878;8.142;2023-02-04T09:10:05;101798.28;;;9.34;100.00
66560;BME280;53413;49.878;8.142;2023-02-04T09:12:30;101798.25;;;9.48;100.00
66560;BME280;53413;49.878;8.142;2023-02-04T09:14:56;101794.69;;;9.63;100.00
66560;BME280;53413;49.878;8.142;2023-02-04T09:17:21;101798.97;;;9.79;100.00
66560;BME280;53413;49.878;8.142;2023-02-04T09:19:47;101807.53;;;10.03;100.00
66560;BME280;53413;49.878;8.142;2023-02-04T09:22:12;101808.94;;;10.49;100.00
66560;BME280;53413;49.878;8.142;2023-02-04T09:24:37;101800.91;;;11.43;100.00
66560;BME280;53413;49.878;8.142;2023-02-04T09:27:03;101798.81;;;13.24;100.00
66560;BME280;53413;49.878;8.142;2023-02-04T09:29:28;101803.91;;;15.45;94.95
66560;BME280;53413;49.878;8.142;2023-02-04T09:31:53;101809.69;;;16.14;84.67
66560;BME280;53413;49.878;8.142;2023-02-04T09:34:19;101811.41;;;16.15;79.14
66560;BME280;53413;49.878;8.142;2023-02-04T09:36:44;101812.78;;;16.00;78.60
66560;BME280;53413;49.878;8.142;2023-02-04T09:39:09;101813.84;;;15.95;75.77
66560;BME280;53413;49.878;8.142;2023-02-04T09:41:38;101819.03;;;16.25;73.23
66560;BME280;53413;49.878;8.142;2023-02-04T09:44:09;101817.63;;;16.67;71.33
66560;BME280;53413;49.878;8.142;2023-02-04T09:46:37;101820.88;;;17.26;70.10
66560;BME280;53413;49.878;8.142;2023-02-04T09:49:02;101823.09;;;17.60;68.18
66560;BME280;53413;49.878;8.142;2023-02-04T09:51:29;101824.94;;;18.47;65.86
66560;BME280;53413;49.878;8.142;2023-02-04T09:54:06;101830.34;;;19.46;60.88
66560;BME280;53413;49.878;8.142;2023-02-04T09:56:33;101816.09;;;20.22;58.22
66560;BME280;53413;49.878;8.142;2023-02-04T09:58:58;101828.84;;;21.03;56.94
66560;BME280;53413;49.878;8.142;2023-02-04T10:01:25;101841.88;;;20.91;54.61
66560;BME280;53413;49.878;8.142;2023-02-04T10:03:51;101845.72;;;20.33;55.34
66560;BME280;53413;49.878;8.142;2023-02-04T10:06:22;101841.81;;;19.86;54.43
66560;BME280;53413;49.878;8.142;2023-02-04T10:08:49;101844.50;;;20.04;54.08
66560;BME280;53413;49.878;8.142;2023-02-04T10:11:17;101853.59;;;20.17;53.51
66560;BME280;53413;49.878;8.142;2023-02-04T10:13:46;101860.63;;;19.62;53.71
66560;BME280;53413;49.878;8.142;2023-02-04T10:16:27;101864.69;;;18.49;55.54
66560;BME280;53413;49.878;8.142;2023-02-04T10:19:03;101874.16;;;17.42;57.72
66560;BME280;53413;49.878;8.142;2023-02-04T10:21:35;101865.19;;;16.70;58.96
66560;BME280;53413;49.878;8.142;2023-02-04T10:24:04;101858.44;;;16.06;59.74
66560;BME280;53413;49.878;8.142;2023-02-04T10:26:32;101871.94;;;15.36;61.35
66560;BME280;53413;49.878;8.142;2023-02-04T10:29:02;101876.53;;;14.97;63.29
66560;BME280;53413;49.878;8.142;2023-02-04T10:36:41;101866.88;;;14.97;64.36
66560;BME280;53413;49.878;8.142;2023-02-04T10:39:11;101875.06;;;15.19;62.53
66560;BME280;53413;49.878;8.142;2023-02-04T10:41:38;101872.16;;;15.29;62.61
66560;BME280;53413;49.878;8.142;2023-02-04T10:44:10;101865.97;;;15.30;62.27
66560;BME280;53413;49.878;8.142;2023-02-04T10:46:36;101870.25;;;15.02;61.82
66560;BME280;53413;49.878;8.142;2023-02-04T10:49:14;101878.56;;;14.87;63.20
66560;BME280;53413;49.878;8.142;2023-02-04T10:51:40;101872.63;;;14.78;64.56
66560;BME280;53413;49.878;8.142;2023-02-04T10:54:10;101863.41;;;14.95;65.14
66560;BME280;53413;49.878;8.142;2023-02-04T10:57:07;101869.75;;;15.21;64.00
66560;BME280;53413;49.878;8.142;2023-02-04T10:59:36;101862.63;;;15.23;63.81
66560;BME280;53413;49.878;8.142;2023-02-04T11:02:33;101857.50;;;14.85;64.02
66560;BME280;53413;49.878;8.142;2023-02-04T11:04:56;101856.19;;;14.67;65.40
66560;BME280;53413;49.878;8.142;2023-02-04T11:07:21;101855.09;;;14.40;66.07
66560;BME280;53413;49.878;8.142;2023-02-04T11:09:47;101849.53;;;14.14;67.00
66560;BME280;53413;49.878;8.142;2023-02-04T11:12:39;101863.22;;;13.93;67.17
66560;BME280;53413;49.878;8.142;2023-02-04T11:15:05;101859.22;;;13.76;67.90
66560;BME280;53413;49.878;8.142;2023-02-04T11:17:33;101857.66;;;13.66;68.65
66560;BME280;53413;49.878;8.142;2023-02-04T11:19:59;101857.16;;;13.48;68.83
66560;BME280;53413;49.878;8.142;2023-02-04T11:22:40;101862.09;;;13.18;69.19
66560;BME280;53413;49.878;8.142;2023-02-04T11:27:57;101865.28;;;12.89;71.12
66560;BME280;53413;49.878;8.142;2023-02-04T11:30:23;101868.16;;;12.75;71.47
66560;BME280;53413;49.878;8.142;2023-02-04T11:33:03;101866.75;;;12.55;71.55
66560;BME280;53413;49.878;8.142;2023-02-04T11:35:29;101869.69;;;12.35;71.33
66560;BME280;53413;49.878;8.142;2023-02-04T11:37:55;101865.63;;;12.14;70.63
66560;BME280;53413;49.878;8.142;2023-02-04T11:42:46;101865.66;;;12.11;70.54
66560;BME280;53413;49.878;8.142;2023-02-04T11:45:20;101868.41;;;12.03;70.16
66560;BME280;53413;49.878;8.142;2023-02-04T11:47:49;101872.84;;;11.99;71.01
66560;BME280;53413;49.878;8.142;2023-02-04T11:50:22;101869.06;;;12.18;69.46
66560;BME280;53413;49.878;8.142;2023-02-04T11:52:52;101866.44;;;12.19;69.42
66560;BME280;53413;49.878;8.142;2023-02-04T11:55:18;101862.94;;;12.19;69.65
66560;BME280;53413;49.878;8.142;2023-02-04T11:57:44;101864.34;;;12.40;69.13
66560;BME280;53413;49.878;8.142;2023-02-04T12:00:18;101860.44;;;12.66;67.66
66560;BME280;53413;49.878;8.142;2023-02-04T12:02:59;101855.91;;;12.74;66.96
66560;BME280;53413;49.878;8.142;2023-02-04T12:05:41;101865.22;;;12.92;66.05
66560;BME280;53413;49.878;8.142;2023-02-04T12:08:13;101859.03;;;12.96;64.58
66560;BME280;53413;49.878;8.142;2023-02-04T12:10:51;101861.25;;;12.69;65.85
66560;BME280;53413;49.878;8.142;2023-02-04T12:13:23;101865.00;;;12.54;66.41
66560;BME280;53413;49.878;8.142;2023-02-04T12:16:04;101873.72;;;11.98;70.10
66560;BME280;53413;49.878;8.142;2023-02-04T12:18:31;101866.53;;;11.43;72.88
66560;BME280;53413;49.878;8.142;2023-02-04T12:20:57;101876.34;;;11.28;74.51
66560;BME280;53413;49.878;8.142;2023-02-04T12:23:24;101881.06;;;10.92;76.02
66560;BME280;53413;49.878;8.142;2023-02-04T12:25:50;101873.59;;;10.45;76.43
66560;BME280;53413;49.878;8.142;2023-02-04T12:28:15;101877.34;;;10.02;78.59
66560;BME280;53413;49.878;8.142;2023-02-04T12:30:40;101879.31;;;9.65;79.80
66560;BME280;53413;49.878;8.142;2023-02-04T12:33:06;101880.28;;;9.37;81.61
66560;BME280;53413;49.878;8.142;2023-02-04T12:35:32;101882.94;;;9.14;83.88
66560;BME280;53413;49.878;8.142;2023-02-04T12:37:57;101878.59;;;8.98;84.50
66560;BME280;53413;49.878;8.142;2023-02-04T12:40:23;101878.63;;;8.91;85.75
66560;BME280;53413;49.878;8.142;2023-02-04T12:42:48;101879.50;;;8.87;86.13
66560;BME280;53413;49.878;8.142;2023-02-04T12:45:15;101880.38;;;8.86;88.57
66560;BME280;53413;49.878;8.142;2023-02-04T12:47:41;101882.09;;;9.07;87.82
66560;BME280;53413;49.878;8.142;2023-02-04T12:50:09;101877.69;;;9.27;88.08
66560;BME280;53413;49.878;8.142;2023-02-04T12:52:34;101879.34;;;9.54;86.94
66560;BME280;53413;49.878;8.142;2023-02-04T12:55:02;101880.06;;;9.85;84.93
66560;BME280;53413;49.878;8.142;2023-02-04T12:57:29;101873.75;;;10.17;83.05